sensor_id;sensor_type;location;lat;lon;timestamp;temperature;humidity
13808;DHT22;40769;51.512;5.494;2023-09-30T00:02:14;17.20;99.90
13808;DHT22;40769;51.512;5.494;2023-09-30T00:04:40;17.10;99.90
13808;DHT22;40769;51.512;5.494;2023-09-30T00:07:05;17.40;99.90
13808;DHT22;40769;51.512;5.494;2023-09-30T00:09:31;17.20;99.90
13808;DHT22;40769;51.512;5.494;2023-09-30T00:11:57;17.20;99.90
13808;DHT22;40769;51.512;5.494;2023-09-30T00:14:23;17.20;99.90
13808;DHT22;40769;51.512;5.494;2023-09-30T00:16:48;17.30;99.90
13808;DHT22;40769;51.512;5.494;2023-09-30T00:19:14;17.10;99.90
13808;DHT22;40769;51.512;5.494;2023-09-30T00:21:40;17.10;99.90
13808;DHT22;40769;51.512;5.494;2023-09-30T00:24:06;17.10;99.90
13808;DHT22;40769;51.512;5.494;2023-09-30T00:26:31;17.20;99.90
13808;DHT22;40769;51.512;5.494;2023-09-30T00:28:57;17.30;99.90
13808;DHT22;40769;51.512;5.494;2023-09-30T00:31:23;17.20;99.90
13808;DHT22;40769;51.512;5.494;2023-09-30T00:33:52;17.20;99.90
13808;DHT22;40769;51.512;5.494;2023-09-30T00:36:17;17.20;99.90
13808;DHT22;40769;51.512;5.494;2023-09-30T00:38:43;17.30;99.90
13808;DHT22;40769;51.512;5.494;2023-09-30T00:41:08;17.30;99.90
13808;DHT22;40769;51.512;5.494;2023-09-30T00:43:34;17.20;99.90
13808;DHT22;40769;51.512;5.494;2023-09-30T00:48:51;17.70;99.90
13808;DHT22;40769;51.512;5.494;2023-09-30T00:51:17;17.30;99.90
13808;DHT22;40769;51.512;5.494;2023-09-30T00:53:43;17.20;99.90
13808;DHT22;40769;51.512;5.494;2023-09-30T00:56:10;17.10;99.90
13808;DHT22;40769;51.512;5.494;2023-09-30T00:58:38;17.00;99.90
13808;DHT22;40769;51.512;5.494;2023-09-30T01:01:04;17.10;99.90
13808;DHT22;40769;51.512;5.494;2023-09-30T01:03:30;17.10;99.90
13808;DHT22;40769;51.512;5.494;2023-09-30T01:05:56;17.20;99.90
13808;DHT22;40769;51.512;5.494;2023-09-30T01:08:22;17.30;99.90
13808;DHT22;40769;51.512;5.494;2023-09-30T01:10:48;17.30;99.90
13808;DHT22;40769;51.512;5.494;2023-09-30T01:13:14;17.20;99.90
13808;DHT22;40769;51.512;5.494;2023-09-30T01:15:39;17.20;99.90
13808;DHT22;40769;51.512;5.494;2023-09-30T01:18:05;17.20;99.90
13808;DHT22;40769;51.512;5.494;2023-09-30T01:20:31;17.30;99.90
13808;DHT22;40769;51.512;5.494;2023-09-30T01:22:57;17.30;99.90
13808;DHT22;40769;51.512;5.494;2023-09-30T01:25:24;17.30;99.90
13808;DHT22;40769;51.512;5.494;2023-09-30T01:27:50;17.30;99.90
13808;DHT22;40769;51.512;5.494;2023-09-30T01:30:20;17.40;99.90
13808;DHT22;40769;51.512;5.494;2023-09-30T01:32:47;17.30;99.90
13808;DHT22;40769;51.512;5.494;2023-09-30T01:35:13;17.30;99.90
13808;DHT22;40769;51.512;5.494;2023-09-30T01:37:39;17.30;99.90
13808;DHT22;40769;51.512;5.494;2023-09-30T01:40:08;17.20;99.90
13808;DHT22;40769;51.512;5.494;2023-09-30T01:42:36;17.10;99.90
13808;DHT22;40769;51.512;5.494;2023-09-30T01:45:02;17.10;99.90
13808;DHT22;40769;51.512;5.494;2023-09-30T01:47:28;17.10;99.90
13808;DHT22;40769;51.512;5.494;2023-09-30T01:49:53;17.00;99.90
13808;DHT22;40769;51.512;5.494;2023-09-30T01:52:19;17.00;99.90
13808;DHT22;40769;51.512;5.494;2023-09-30T01:54:45;17.00;99.90
13808;DHT22;40769;51.512;5.494;2023-09-30T01:57:10;16.90;99.90
13808;DHT22;40769;51.512;5.494;2023-09-30T01:59:36;16.90;99.90
13808;DHT22;40769;51.512;5.494;2023-09-30T02:02:02;16.80;99.90
13808;DHT22;40769;51.512;5.494;2023-09-30T02:04:28;16.80;99.90
13808;DHT22;40769;51.512;5.494;2023-09-30T02:06:54;16.70;99.90
13808;DHT22;40769;51.512;5.494;2023-09-30T02:09:20;16.60;99.90
13808;DHT22;40769;51.512;5.494;2023-09-30T02:11:46;16.40;99.90
13808;DHT22;40769;51.512;5.494;2023-09-30T02:14:11;16.40;99.90
13808;DHT22;40769;51.512;5.494;2023-09-30T02:16:38;16.20;99.90
13808;DHT22;40769;51.512;5.494;2023-09-30T02:19:04;16.10;99.90
13808;DHT22;40769;51.512;5.494;2023-09-30T02:21:30;16.10;99.90
13808;DHT22;40769;51.512;5.494;2023-09-30T02:23:56;16.00;99.90
13808;DHT22;40769;51.512;5.494;2023-09-30T02:26:21;16.00;99.90
13808;DHT22;40769;51.512;5.494;2023-09-30T02:28:51;15.90;99.90
13808;DHT22;40769;51.512;5.494;2023-09-30T02:31:17;15.80;99.90
13808;DHT22;40769;51.512;5.494;2023-09-30T02:33:43;15.70;99.90
13808;DHT22;40769;51.512;5.494;2023-09-30T02:36:09;15.60;99.90
13808;DHT22;40769;51.512;5.494;2023-09-30T02:38:35;15.40;99.90
13808;DHT22;40769;51.512;5.494;2023-09-30T02:41:04;15.20;99.90
13808;DHT22;40769;51.512;5.494;2023-09-30T02:43:30;15.00;99.90
13808;DHT22;40769;51.512;5.494;2023-09-30T02:45:56;14.70;99.90
13808;DHT22;40769;51.512;5.494;2023-09-30T02:48:22;14.70;99.90
13808;DHT22;40769;51.512;5.494;2023-09-30T02:50:47;14.50;99.90
13808;DHT22;40769;51.512;5.494;2023-09-30T02:53:13;14.40;99.90
13808;DHT22;40769;51.512;5.494;2023-09-30T02:55:40;14.40;99.90
13808;DHT22;40769;51.512;5.494;2023-09-30T02:58:09;14.20;99.90
13808;DHT22;40769;51.512;5.494;2023-09-30T03:00:35;14.20;99.90
13808;DHT22;40769;51.512;5.494;2023-09-30T03:03:01;14.20;99.90
13808;DHT22;40769;51.512;5.494;2023-09-30T03:05:27;14.30;99.90
13808;DHT22;40769;51.512;5.494;2023-09-30T03:07:55;14.50;99.90
13808;DHT22;40769;51.512;5.494;2023-09-30T03:10:24;14.70;99.90
13808;DHT22;40769;51.512;5.494;2023-09-30T03:12:50;15.00;99.90
13808;DHT22;40769;51.512;5.494;2023-09-30T03:15:16;15.20;99.90
13808;DHT22;40769;51.512;5.494;2023-09-30T03:21:01;15.60;99.90
13808;DHT22;40769;51.512;5.494;2023-09-30T03:23:30;15.70;99.90
13808;DHT22;40769;51.512;5.494;2023-09-30T03:26:00;15.70;99.90
13808;DHT22;40769;51.512;5.494;2023-09-30T03:28:26;15.80;99.90
13808;DHT22;40769;51.512;5.494;2023-09-30T03:30:52;15.80;99.90
13808;DHT22;40769;51.512;5.494;2023-09-30T03:33:18;15.80;99.90
13808;DHT22;40769;51.512;5.494;2023-09-30T03:35:43;15.70;99.90
13808;DHT22;40769;51.512;5.494;2023-09-30T03:38:10;15.80;99.90
13808;DHT22;40769;51.512;5.494;2023-09-30T03:40:36;15.80;99.90
13808;DHT22;40769;51.512;5.494;2023-09-30T03:43:04;15.80;99.90
13808;DHT22;40769;51.512;5.494;2023-09-30T03:45:32;15.90;99.90
13808;DHT22;40769;51.512;5.494;2023-09-30T03:47:58;15.90;99.90
13808;DHT22;40769;51.512;5.494;2023-09-30T03:50:26;15.90;99.90
13808;DHT22;40769;51.512;5.494;2023-09-30T03:53:01;16.00;99.90
13808;DHT22;40769;51.512;5.494;2023-09-30T03:55:27;16.10;99.90
13808;DHT22;40769;51.512;5.494;2023-09-30T03:57:55;16.30;99.90
13808;DHT22;40769;51.512;5.494;2023-09-30T04:00:20;16.50;99.90
13808;DHT22;40769;51.512;5.494;2023-09-30T04:02:47;16.70;99.90
13808;DHT22;40769;51.512;5.494;2023-09-30T04:05:19;16.90;99.90
13808;DHT22;40769;51.512;5.494;2023-09-30T04:07:45;17.10;99.90
13808;DHT22;40769;51.512;5.494;2023-09-30T04:10:10;17.20;99.90
13808;DHT22;40769;51.512;5.494;2023-09-30T04:12:36;17.40;99.90
13808;DHT22;40769;51.512;5.494;2023-09-30T04:15:02;17.60;99.90
13808;DHT22;40769;51.512;5.494;2023-09-30T04:17:31;18.10;99.90
13808;DHT22;40769;51.512;5.494;2023-09-30T04:19:58;18.00;99.90
13808;DHT22;40769;51.512;5.494;2023-09-30T04:22:23;18.10;99.90
13808;DHT22;40769;51.512;5.494;2023-09-30T04:24:51;18.30;99.90
13808;DHT22;40769;51.512;5.494;2023-09-30T04:27:17;18.40;99.90
13808;DHT22;40769;51.512;5.494;2023-09-30T04:29:43;18.60;99.90
13808;DHT22;40769;51.512;5.494;2023-09-30T04:32:09;18.70;99.90
13808;DHT22;40769;51.512;5.494;2023-09-30T04:34:35;18.80;99.90
13808;DHT22;40769;51.512;5.494;2023-09-30T04:37:01;18.90;99.90
13808;DHT22;40769;51.512;5.494;2023-09-30T04:39:27;18.90;99.90
13808;DHT22;40769;51.512;5.494;2023-09-30T04:41:52;19.00;99.90
13808;DHT22;40769;51.512;5.494;2023-09-30T04:44:20;19.10;99.90
13808;DHT22;40769;51.512;5.494;2023-09-30T04:46:48;19.10;99.90
13808;DHT22;40769;51.512;5.494;2023-09-30T04:49:14;19.10;99.90
13808;DHT22;40769;51.512;5.494;2023-09-30T04:51:41;19.10;99.90
13808;DHT22;40769;51.512;5.494;2023-09-30T04:54:06;20.40;99.90
13808;DHT22;40769;51.512;5.494;2023-09-30T04:56:37;19.10;99.90
13808;DHT22;40769;51.512;5.494;2023-09-30T04:59:06;19.10;99.90
13808;DHT22;40769;51.512;5.494;2023-09-30T05:01:32;19.10;99.90
13808;DHT22;40769;51.512;5.494;2023-09-30T05:03:57;19.10;99.90
13808;DHT22;40769;51.512;5.494;2023-09-30T05:06:23;18.40;99.90
13808;DHT22;40769;51.512;5.494;2023-09-30T05:08:49;19.10;99.90
13808;DHT22;40769;51.512;5.494;2023-09-30T05:11:14;19.20;99.90
13808;DHT22;40769;51.512;5.494;2023-09-30T05:13:40;19.20;99.90
13808;DHT22;40769;51.512;5.494;2023-09-30T05:16:06;19.20;99.90
13808;DHT22;40769;51.512;5.494;2023-09-30T05:18:38;19.30;99.90
13808;DHT22;40769;51.512;5.494;2023-09-30T05:21:07;19.30;99.90
13808;DHT22;40769;51.512;5.494;2023-09-30T05:23:32;19.30;99.90
13808;DHT22;40769;51.512;5.494;2023-09-30T05:25:58;19.40;99.90
13808;DHT22;40769;51.512;5.494;2023-09-30T05:28:24;19.40;99.90
13808;DHT22;40769;51.512;5.494;2023-09-30T05:30:50;19.40;99.90
13808;DHT22;40769;51.512;5.494;2023-09-30T05:33:16;20.20;99.90
13808;DHT22;40769;51.512;5.494;2023-09-30T05:35:42;19.40;99.90
13808;DHT22;40769;51.512;5.494;2023-09-30T05:38:08;19.40;99.90
13808;DHT22;40769;51.512;5.494;2023-09-30T05:40:34;19.40;99.90
13808;DHT22;40769;51.512;5.494;2023-09-30T05:43:00;20.10;99.90
13808;DHT22;40769;51.512;5.494;2023-09-30T05:45:27;19.30;99.90
13808;DHT22;40769;51.512;5.494;2023-09-30T05:47:53;19.30;99.90
13808;DHT22;40769;51.512;5.494;2023-09-30T05:50:20;19.30;99.90
13808;DHT22;40769;51.512;5.494;2023-09-30T05:52:54;19.30;99.90
13808;DHT22;40769;51.512;5.494;2023-09-30T05:55:20;19.20;99.90
13808;DHT22;40769;51.512;5.494;2023-09-30T05:57:49;19.20;99.90
13808;DHT22;40769;51.512;5.494;2023-09-30T06:00:18;19.20;99.90
13808;DHT22;40769;51.512;5.494;2023-09-30T06:02:57;19.20;99.90
13808;DHT22;40769;51.512;5.494;2023-09-30T06:05:23;19.10;99.90
13808;DHT22;40769;51.512;5.494;2023-09-30T06:07:49;19.00;99.90
13808;DHT22;40769;51.512;5.494;2023-09-30T06:10:15;19.00;99.90
13808;DHT22;40769;51.512;5.494;2023-09-30T06:12:44;18.90;99.90
13808;DHT22;40769;51.512;5.494;2023-09-30T06:15:12;18.90;99.90
13808;DHT22;40769;51.512;5.494;2023-09-30T06:17:39;18.80;99.90
13808;DHT22;40769;51.512;5.494;2023-09-30T06:20:05;18.80;99.90
13808;DHT22;40769;51.512;5.494;2023-09-30T06:22:35;18.60;99.90
13808;DHT22;40769;51.512;5.494;2023-09-30T06:25:01;18.60;99.90
13808;DHT22;40769;51.512;5.494;2023-09-30T06:27:29;18.50;99.90
13808;DHT22;40769;51.512;5.494;2023-09-30T06:29:55;18.30;99.90
13808;DHT22;40769;51.512;5.494;2023-09-30T06:32:20;18.00;99.90
13808;DHT22;40769;51.512;5.494;2023-09-30T06:34:47;18.00;99.90
13808;DHT22;40769;51.512;5.494;2023-09-30T06:37:12;18.00;99.90
13808;DHT22;40769;51.512;5.494;2023-09-30T06:39:39;17.80;99.90
13808;DHT22;40769;51.512;5.494;2023-09-30T06:42:04;17.80;99.90
13808;DHT22;40769;51.512;5.494;2023-09-30T06:44:31;17.80;99.90
13808;DHT22;40769;51.512;5.494;2023-09-30T06:46:56;17.70;99.90
13808;DHT22;40769;51.512;5.494;2023-09-30T06:49:22;17.80;99.90
13808;DHT22;40769;51.512;5.494;2023-09-30T06:51:48;17.80;99.90
13808;DHT22;40769;51.512;5.494;2023-09-30T06:54:14;17.90;99.90
13808;DHT22;40769;51.512;5.494;2023-09-30T06:56:39;18.00;99.90
13808;DHT22;40769;51.512;5.494;2023-09-30T06:59:06;18.00;99.90
13808;DHT22;40769;51.512;5.494;2023-09-30T07:01:32;18.10;99.90
13808;DHT22;40769;51.512;5.494;2023-09-30T07:03:57;18.20;99.90
13808;DHT22;40769;51.512;5.494;2023-09-30T07:06:24;18.30;99.90
13808;DHT22;40769;51.512;5.494;2023-09-30T07:08:50;18.30;99.90
13808;DHT22;40769;51.512;5.494;2023-09-30T07:11:15;18.40;99.90
13808;DHT22;40769;51.512;5.494;2023-09-30T07:13:43;18.40;99.90
13808;DHT22;40769;51.512;5.494;2023-09-30T07:16:09;18.40;99.90
13808;DHT22;40769;51.512;5.494;2023-09-30T07:18:35;18.40;99.90
13808;DHT22;40769;51.512;5.494;2023-09-30T07:21:01;18.50;99.90
13808;DHT22;40769;51.512;5.494;2023-09-30T07:23:30;18.60;99.90
13808;DHT22;40769;51.512;5.494;2023-09-30T07:25:57;18.70;99.90
13808;DHT22;40769;51.512;5.494;2023-09-30T07:28:23;18.80;99.90
13808;DHT22;40769;51.512;5.494;2023-09-30T07:30:48;18.90;99.90
13808;DHT22;40769;51.512;5.494;2023-09-30T07:33:14;19.00;99.90
13808;DHT22;40769;51.512;5.494;2023-09-30T07:35:39;19.10;99.90
13808;DHT22;40769;51.512;5.494;2023-09-30T07:38:05;19.20;99.90
13808;DHT22;40769;51.512;5.494;2023-09-30T07:40:31;19.30;99.90
13808;DHT22;40769;51.512;5.494;2023-09-30T07:42:58;19.40;99.90
13808;DHT22;40769;51.512;5.494;2023-09-30T07:45:23;19.60;99.90
13808;DHT22;40769;51.512;5.494;2023-09-30T07:47:49;19.70;99.90
13808;DHT22;40769;51.512;5.494;2023-09-30T07:50:16;19.90;99.90
13808;DHT22;40769;51.512;5.494;2023-09-30T07:52:43;20.10;99.90
13808;DHT22;40769;51.512;5.494;2023-09-30T07:55:09;20.40;99.90
13808;DHT22;40769;51.512;5.494;2023-09-30T07:57:35;20.70;99.90
13808;DHT22;40769;51.512;5.494;2023-09-30T08:00:02;21.00;99.90
13808;DHT22;40769;51.512;5.494;2023-09-30T08:02:29;21.20;99.90
13808;DHT22;40769;51.512;5.494;2023-09-30T08:04:59;21.40;99.90
13808;DHT22;40769;51.512;5.494;2023-09-30T08:07:27;21.50;99.90
13808;DHT22;40769;51.512;5.494;2023-09-30T08:09:53;21.60;99.90
13808;DHT22;40769;51.512;5.494;2023-09-30T08:12:19;21.70;99.90
13808;DHT22;40769;51.512;5.494;2023-09-30T08:14:44;21.80;99.90
13808;DHT22;40769;51.512;5.494;2023-09-30T08:17:10;22.00;99.90
13808;DHT22;40769;51.512;5.494;2023-09-30T08:19:37;22.10;99.90
13808;DHT22;40769;51.512;5.494;2023-09-30T08:22:03;22.30;99.90
13808;DHT22;40769;51.512;5.494;2023-09-30T08:24:29;22.40;99.90
13808;DHT22;40769;51.512;5.494;2023-09-30T08:26:55;22.60;99.90
13808;DHT22;40769;51.512;5.494;2023-09-30T08:29:22;22.60;99.90
13808;DHT22;40769;51.512;5.494;2023-09-30T08:31:47;22.70;99.90
13808;DHT22;40769;51.512;5.494;2023-09-30T08:34:16;22.70;99.90
13808;DHT22;40769;51.512;5.494;2023-09-30T08:36:42;22.80;99.90
13808;DHT22;40769;51.512;5.494;2023-09-30T08:39:08;22.90;99.90
13808;DHT22;40769;51.512;5.494;2023-09-30T08:41:35;22.90;99.90
13808;DHT22;40769;51.512;5.494;2023-09-30T08:44:02;23.00;99.90
13808;DHT22;40769;51.512;5.494;2023-09-30T08:46:34;23.00;99.90
13808;DHT22;40769;51.512;5.494;2023-09-30T08:49:02;23.00;99.90
13808;DHT22;40769;51.512;5.494;2023-09-30T08:51:32;23.10;99.90
13808;DHT22;40769;51.512;5.494;2023-09-30T08:54:00;23.20;99.90
13808;DHT22;40769;51.512;5.494;2023-09-30T08:56:30;23.20;99.90
13808;DHT22;40769;51.512;5.494;2023-09-30T08:58:59;23.20;99.90
13808;DHT22;40769;51.512;5.494;2023-09-30T09:01:27;23.30;99.90
13808;DHT22;40769;51.512;5.494;2023-09-30T09:03:54;23.30;99.90
13808;DHT22;40769;51.512;5.494;2023-09-30T09:06:24;23.40;99.90
13808;DHT22;40769;51.512;5.494;2023-09-30T09:08:51;23.50;99.90
13808;DHT22;40769;51.512;5.494;2023-09-30T09:11:17;23.60;99.90
13808;DHT22;40769;51.512;5.494;2023-09-30T09:13:48;23.70;99.90
13808;DHT22;40769;51.512;5.494;2023-09-30T09:16:21;23.80;99.90
13808;DHT22;40769;51.512;5.494;2023-09-30T09:18:48;24.00;99.90
13808;DHT22;40769;51.512;5.494;2023-09-30T09:21:18;24.20;99.90
13808;DHT22;40769;51.512;5.494;2023-09-30T09:23:47;24.40;99.90
13808;DHT22;40769;51.512;5.494;2023-09-30T09:26:31;24.50;99.90
13808;DHT22;40769;51.512;5.494;2023-09-30T09:29:12;24.70;99.90
13808;DHT22;40769;51.512;5.494;2023-09-30T09:31:38;24.90;99.90
13808;DHT22;40769;51.512;5.494;2023-09-30T09:34:30;25.10;99.90
13808;DHT22;40769;51.512;5.494;2023-09-30T09:36:59;25.20;99.90
13808;DHT22;40769;51.512;5.494;2023-09-30T09:39:34;25.40;99.90
13808;DHT22;40769;51.512;5.494;2023-09-30T09:42:00;25.50;99.90
13808;DHT22;40769;51.512;5.494;2023-09-30T09:48:15;25.50;99.90
13808;DHT22;40769;51.512;5.494;2023-09-30T09:50:43;25.40;99.90
13808;DHT22;40769;51.512;5.494;2023-09-30T09:53:14;25.40;99.90
13808;DHT22;40769;51.512;5.494;2023-09-30T09:55:42;25.40;99.90
13808;DHT22;40769;51.512;5.494;2023-09-30T09:58:08;25.40;99.90
13808;DHT22;40769;51.512;5.494;2023-09-30T10:00:36;25.50;99.90
13808;DHT22;40769;51.512;5.494;2023-09-30T10:03:02;25.50;99.90
13808;DHT22;40769;51.512;5.494;2023-09-30T10:05:29;25.60;99.90
13808;DHT22;40769;51.512;5.494;2023-09-30T10:07:56;25.70;99.90
13808;DHT22;40769;51.512;5.494;2023-09-30T10:10:23;25.70;99.90
13808;DHT22;40769;51.512;5.494;2023-09-30T10:12:50;25.70;99.90
13808;DHT22;40769;51.512;5.494;2023-09-30T10:18:04;25.80;99.90
13808;DHT22;40769;51.512;5.494;2023-09-30T10:20:40;25.80;99.90
13808;DHT22;40769;51.512;5.494;2023-09-30T10:23:28;25.70;99.90
13808;DHT22;40769;51.512;5.494;2023-09-30T10:26:21;25.10;99.90
13808;DHT22;40769;51.512;5.494;2023-09-30T10:28:48;25.50;99.90
13808;DHT22;40769;51.512;5.494;2023-09-30T10:31:20;25.40;99.90
13808;DHT22;40769;51.512;5.494;2023-09-30T10:36:34;25.30;99.90
13808;DHT22;40769;51.512;5.494;2023-09-30T10:39:01;25.30;99.90
13808;DHT22;40769;51.512;5.494;2023-09-30T10:46:57;25.40;99.90
13808;DHT22;40769;51.512;5.494;2023-09-30T10:51:54;25.50;99.90
13808;DHT22;40769;51.512;5.494;2023-09-30T10:54:28;25.50;99.90
13808;DHT22;40769;51.512;5.494;2023-09-30T10:56:54;25.70;99.90
13808;DHT22;40769;51.512;5.494;2023-09-30T10:59:22;25.80;99.90
13808;DHT22;40769;51.512;5.494;2023-09-30T11:02:19;25.80;99.90
13808;DHT22;40769;51.512;5.494;2023-09-30T11:04:46;25.90;99.90
13808;DHT22;40769;51.512;5.494;2023-09-30T11:07:12;26.10;99.90
13808;DHT22;40769;51.512;5.494;2023-09-30T11:09:41;26.20;99.90
13808;DHT22;40769;51.512;5.494;2023-09-30T11:12:13;26.40;99.90
13808;DHT22;40769;51.512;5.494;2023-09-30T11:14:40;26.40;99.90
13808;DHT22;40769;51.512;5.494;2023-09-30T11:17:06;26.60;99.90
13808;DHT22;40769;51.512;5.494;2023-09-30T11:19:36;26.70;99.90
13808;DHT22;40769;51.512;5.494;2023-09-30T11:22:03;26.70;99.90
13808;DHT22;40769;51.512;5.494;2023-09-30T11:24:30;27.00;99.90
13808;DHT22;40769;51.512;5.494;2023-09-30T11:26:58;27.00;99.90
13808;DHT22;40769;51.512;5.494;2023-09-30T11:29:23;27.10;99.90
13808;DHT22;40769;51.512;5.494;2023-09-30T11:31:50;27.10;99.90
13808;DHT22;40769;51.512;5.494;2023-09-30T11:34:19;27.20;99.90
13808;DHT22;40769;51.512;5.494;2023-09-30T11:36:52;27.20;99.90
13808;DHT22;40769;51.512;5.494;2023-09-30T11:39:25;27.20;99.90
13808;DHT22;40769;51.512;5.494;2023-09-30T11:41:51;27.20;99.90
13808;DHT22;40769;51.512;5.494;2023-09-30T11:44:17;27.10;99.90
13808;DHT22;40769;51.512;5.494;2023-09-30T11:47:02;26.90;99.90
13808;DHT22;40769;51.512;5.494;2023-09-30T11:49:35;26.90;99.90
13808;DHT22;40769;51.512;5.494;2023-09-30T11:52:04;26.80;99.90
13808;DHT22;40769;51.512;5.494;2023-09-30T11:54:32;26.70;99.90
13808;DHT22;40769;51.512;5.494;2023-09-30T11:57:01;26.60;99.90
13808;DHT22;40769;51.512;5.494;2023-09-30T11:59:28;26.50;99.90
13808;DHT22;40769;51.512;5.494;2023-09-30T12:01:58;26.40;99.90
13808;DHT22;40769;51.512;5.494;2023-09-30T12:04:24;26.50;99.90
13808;DHT22;40769;51.512;5.494;2023-09-30T12:06:50;26.50;99.90
13808;DHT22;40769;51.512;5.494;2023-09-30T12:09:18;26.60;99.90
13808;DHT22;40769;51.512;5.494;2023-09-30T12:11:51;26.70;99.90
13808;DHT22;40769;51.512;5.494;2023-09-30T12:14:17;26.90;99.90
13808;DHT22;40769;51.512;5.494;2023-09-30T12:16:43;27.00;99.90
13808;DHT22;40769;51.512;5.494;2023-09-30T12:19:21;27.10;99.90
13808;DHT22;40769;51.512;5.494;2023-09-30T12:21:47;27.10;99.90
13808;DHT22;40769;51.512;5.494;2023-09-30T12:24:19;27.20;99.90
13808;DHT22;40769;51.512;5.494;2023-09-30T12:26:47;27.30;99.90
13808;DHT22;40769;51.512;5.494;2023-09-30T12:29:18;27.30;99.90
13808;DHT22;40769;51.512;5.494;2023-09-30T12:31:44;27.50;99.90
13808;DHT22;40769;51.512;5.494;2023-09-30T12:34:10;27.50;99.90
13808;DHT22;40769;51.512;5.494;2023-09-30T12:36:36;27.60;99.90
13808;DHT22;40769;51.512;5.494;2023-09-30T12:39:02;27.70;99.90
13808;DHT22;40769;51.512;5.494;2023-09-30T12:41:42;27.70;99.90
13808;DHT22;40769;51.512;5.494;2023-09-30T12:44:08;27.70;99.90
13808;DHT22;40769;51.512;5.494;2023-09-30T12:46:34;27.60;99.90
13808;DHT22;40769;51.512;5.494;2023-09-30T12:49:03;27.60;99.90
13808;DHT22;40769;51.512;5.494;2023-09-30T12:51:29;27.50;99.90
13808;DHT22;40769;51.512;5.494;2023-09-30T12:53:56;27.50;99.90
13808;DHT22;40769;51.512;5.494;2023-09-30T12:56:24;27.50;99.90
13808;DHT22;40769;51.512;5.494;2023-09-30T12:58:49;27.50;99.90
13808;DHT22;40769;51.512;5.494;2023-09-30T13:01:15;27.50;99.90
13808;DHT22;40769;51.512;5.494;2023-09-30T13:03:44;27.50;99.90
13808;DHT22;40769;51.512;5.494;2023-09-30T13:06:10;27.50;99.90
13808;DHT22;40769;51.512;5.494;2023-09-30T13:08:35;27.50;99.90
13808;DHT22;40769;51.512;5.494;2023-09-30T13:11:02;27.50;99.90
13808;DHT22;40769;51.512;5.494;2023-09-30T13:13:29;27.40;99.90
13808;DHT22;40769;51.512;5.494;2023-09-30T13:15:59;27.40;99.90
13808;DHT22;40769;51.512;5.494;2023-09-30T13:18:25;27.30;99.90
13808;DHT22;40769;51.512;5.494;2023-09-30T13:20:51;27.20;99.90
13808;DHT22;40769;51.512;5.494;2023-09-30T13:23:18;27.10;99.90
13808;DHT22;40769;51.512;5.494;2023-09-30T13:25:44;26.90;99.90
13808;DHT22;40769;51.512;5.494;2023-09-30T13:28:10;26.80;99.90
13808;DHT22;40769;51.512;5.494;2023-09-30T13:30:36;26.70;99.90
13808;DHT22;40769;51.512;5.494;2023-09-30T13:33:02;26.70;99.90
13808;DHT22;40769;51.512;5.494;2023-09-30T13:35:27;26.60;99.90
13808;DHT22;40769;51.512;5.494;2023-09-30T13:37:53;26.60;99.90
13808;DHT22;40769;51.512;5.494;2023-09-30T13:40:19;26.50;99.90
13808;DHT22;40769;51.512;5.494;2023-09-30T13:42:45;26.50;99.90
13808;DHT22;40769;51.512;5.494;2023-09-30T13:45:12;26.40;99.90
13808;DHT22;40769;51.512;5.494;2023-09-30T13:47:38;26.40;99.90
13808;DHT22;40769;51.512;5.494;2023-09-30T13:50:05;26.30;99.90
13808;DHT22;40769;51.512;5.494;2023-09-30T13:52:33;26.30;99.90
13808;DHT22;40769;51.512;5.494;2023-09-30T13:54:59;26.30;99.90
13808;DHT22;40769;51.512;5.494;2023-09-30T13:57:25;26.20;99.90
13808;DHT22;40769;51.512;5.494;2023-09-30T13:59:51;26.20;99.90
13808;DHT22;40769;51.512;5.494;2023-09-30T14:02:16;26.10;99.90
13808;DHT22;40769;51.512;5.494;2023-09-30T14:04:42;26.10;99.90
13808;DHT22;40769;51.512;5.494;2023-09-30T14:07:08;26.10;99.90
13808;DHT22;40769;51.512;5.494;2023-09-30T14:09:33;26.10;99.90
13808;DHT22;40769;51.512;5.494;2023-09-30T14:11:59;26.20;99.90
13808;DHT22;40769;51.512;5.494;2023-09-30T14:14:26;26.40;99.90
13808;DHT22;40769;51.512;5.494;2023-09-30T14:16:51;26.50;99.90
13808;DHT22;40769;51.512;5.494;2023-09-30T14:19:17;26.70;99.90
13808;DHT22;40769;51.512;5.494;2023-09-30T14:21:43;26.90;99.90
13808;DHT22;40769;51.512;5.494;2023-09-30T14:24:09;27.10;99.90
13808;DHT22;40769;51.512;5.494;2023-09-30T14:26:35;27.20;99.90
13808;DHT22;40769;51.512;5.494;2023-09-30T14:29:01;27.30;99.90
13808;DHT22;40769;51.512;5.494;2023-09-30T14:31:27;27.30;99.90
13808;DHT22;40769;51.512;5.494;2023-09-30T14:33:53;27.50;99.90
13808;DHT22;40769;51.512;5.494;2023-09-30T14:36:18;27.50;99.90
13808;DHT22;40769;51.512;5.494;2023-09-30T14:38:45;27.50;99.90
13808;DHT22;40769;51.512;5.494;2023-09-30T14:41:11;27.50;99.90
13808;DHT22;40769;51.512;5.494;2023-09-30T14:43:38;27.50;99.90
13808;DHT22;40769;51.512;5.494;2023-09-30T14:46:04;27.50;99.90
13808;DHT22;40769;51.512;5.494;2023-09-30T14:48:31;27.40;99.90
13808;DHT22;40769;51.512;5.494;2023-09-30T14:50:56;27.40;99.90
13808;DHT22;40769;51.512;5.494;2023-09-30T14:53:23;27.30;99.90
13808;DHT22;40769;51.512;5.494;2023-09-30T14:55:50;27.30;99.90
13808;DHT22;40769;51.512;5.494;2023-09-30T14:58:16;27.20;99.90
13808;DHT22;40769;51.512;5.494;2023-09-30T15:00:42;27.30;99.90
13808;DHT22;40769;51.512;5.494;2023-09-30T15:03:07;27.30;99.90
13808;DHT22;40769;51.512;5.494;2023-09-30T15:05:33;27.20;99.90
13808;DHT22;40769;51.512;5.494;2023-09-30T15:08:00;27.20;99.90
13808;DHT22;40769;51.512;5.494;2023-09-30T15:10:28;27.10;99.90
13808;DHT22;40769;51.512;5.494;2023-09-30T15:12:55;27.00;99.90
13808;DHT22;40769;51.512;5.494;2023-09-30T15:15:20;27.00;99.90
13808;DHT22;40769;51.512;5.494;2023-09-30T15:17:46;26.60;99.90
13808;DHT22;40769;51.512;5.494;2023-09-30T15:20:13;26.90;99.90
13808;DHT22;40769;51.512;5.494;2023-09-30T15:22:39;26.80;99.90
13808;DHT22;40769;51.512;5.494;2023-09-30T15:25:06;26.70;99.90
13808;DHT22;40769;51.512;5.494;2023-09-30T15:27:32;26.50;99.90
13808;DHT22;40769;51.512;5.494;2023-09-30T15:30:00;26.40;99.90
13808;DHT22;40769;51.512;5.494;2023-09-30T15:32:26;26.20;99.90
13808;DHT22;40769;51.512;5.494;2023-09-30T15:35:11;26.20;99.90
13808;DHT22;40769;51.512;5.494;2023-09-30T15:37:37;26.10;99.90
13808;DHT22;40769;51.512;5.494;2023-09-30T15:40:04;26.00;99.90
13808;DHT22;40769;51.512;5.494;2023-09-30T15:42:29;25.90;99.90
13808;DHT22;40769;51.512;5.494;2023-09-30T15:44:55;25.80;99.90
13808;DHT22;40769;51.512;5.494;2023-09-30T15:47:22;25.60;99.90
13808;DHT22;40769;51.512;5.494;2023-09-30T15:49:48;25.50;99.90
13808;DHT22;40769;51.512;5.494;2023-09-30T15:52:13;25.40;99.90
13808;DHT22;40769;51.512;5.494;2023-09-30T15:54:39;25.30;99.90